sensor_id;sensor_type;location;lat;lon;timestamp;pressure;altitude;pressure_sealevel;temperature;humidity
12969;BME280;6549;53.128;8.182;2023-04-23T00:00:21;100450.59;;;10.99;100.00
12969;BME280;6549;53.128;8.182;2023-04-23T00:03:22;100445.50;;;10.91;100.00
12969;BME280;6549;53.128;8.182;2023-04-23T00:06:24;100449.81;;;10.81;100.00
12969;BME280;6549;53.128;8.182;2023-04-23T00:09:26;100446.69;;;10.72;100.00
12969;BME280;6549;53.128;8.182;2023-04-23T00:12:29;100447.47;;;10.65;100.00
12969;BME280;6549;53.128;8.182;2023-04-23T00:15:30;100447.50;;;10.62;100.00
12969;BME280;6549;53.128;8.182;2023-04-23T00:18:30;100449.44;;;10.54;100.00
12969;BME280;6549;53.128;8.182;2023-04-23T00:21:30;100463.16;;;10.51;100.00
12969;BME280;6549;53.128;8.182;2023-04-23T00:24:31;100452.97;;;10.44;100.00
12969;BME280;6549;53.128;8.182;2023-04-23T00:27:33;100458.44;;;10.41;100.00
12969;BME280;6549;53.128;8.182;2023-04-23T00:30:33;100457.66;;;10.40;100.00
12969;BME280;6549;53.128;8.182;2023-04-23T00:33:34;100460.81;;;10.39;100.00
12969;BME280;6549;53.128;8.182;2023-04-23T00:36:34;100459.25;;;10.34;100.00
12969;BME280;6549;53.128;8.182;2023-04-23T00:39:34;100461.59;;;10.35;100.00
12969;BME280;6549;53.128;8.182;2023-04-23T00:42:38;100461.59;;;10.35;100.00
12969;BME280;6549;53.128;8.182;2023-04-23T00:45:39;100465.13;;;10.25;100.00
12969;BME280;6549;53.128;8.182;2023-04-23T00:48:39;100469.03;;;10.21;100.00
12969;BME280;6549;53.128;8.182;2023-04-23T00:51:40;100466.28;;;10.17;100.00
12969;BME280;6549;53.128;8.182;2023-04-23T00:54:41;100461.91;;;10.09;100.00
12969;BME280;6549;53.128;8.182;2023-04-23T00:57:41;100467.00;;;10.07;100.00
12969;BME280;6549;53.128;8.182;2023-04-23T01:00:45;100469.75;;;10.04;100.00
12969;BME280;6549;53.128;8.182;2023-04-23T01:03:51;100462.31;;;10.04;100.00
12969;BME280;6549;53.128;8.182;2023-04-23T01:06:52;100461.91;;;10.02;100.00
12969;BME280;6549;53.128;8.182;2023-04-23T01:09:53;100472.09;;;10.02;100.00
12969;BME280;6549;53.128;8.182;2023-04-23T01:12:53;100472.88;;;9.95;100.00
12969;BME280;6549;53.128;8.182;2023-04-23T01:15:57;100472.88;;;9.95;100.00
12969;BME280;6549;53.128;8.182;2023-04-23T01:18:57;100471.28;;;9.94;100.00
12969;BME280;6549;53.128;8.182;2023-04-23T01:22:00;100463.06;;;9.98;100.00
12969;BME280;6549;53.128;8.182;2023-04-23T01:25:01;100470.13;;;9.95;100.00
12969;BME280;6549;53.128;8.182;2023-04-23T01:28:02;100480.31;;;9.95;100.00
12969;BME280;6549;53.128;8.182;2023-04-23T01:31:04;100479.16;;;9.99;100.00
12969;BME280;6549;53.128;8.182;2023-04-23T01:34:04;100471.28;;;9.90;100.00
12969;BME280;6549;53.128;8.182;2023-04-23T01:37:06;100466.53;;;9.84;100.00
12969;BME280;6549;53.128;8.182;2023-04-23T01:40:07;100457.94;;;9.82;100.00
12969;BME280;6549;53.128;8.182;2023-04-23T01:43:08;100473.97;;;9.80;100.00
12969;BME280;6549;53.128;8.182;2023-04-23T01:46:09;100477.50;;;9.77;100.00
12969;BME280;6549;53.128;8.182;2023-04-23T01:49:09;100480.63;;;9.72;100.00
12969;BME280;6549;53.128;8.182;2023-04-23T01:52:10;100480.19;;;9.66;100.00
12969;BME280;6549;53.128;8.182;2023-04-23T01:55:10;100485.28;;;9.64;100.00
12969;BME280;6549;53.128;8.182;2023-04-23T01:58:11;100479.78;;;9.61;100.00
12969;BME280;6549;53.128;8.182;2023-04-23T02:01:11;100483.66;;;9.56;100.00
12969;BME280;6549;53.128;8.182;2023-04-23T02:04:13;100478.97;;;9.53;100.00
12969;BME280;6549;53.128;8.182;2023-04-23T02:07:13;100481.28;;;9.47;100.00
12969;BME280;6549;53.128;8.182;2023-04-23T02:10:14;100486.75;;;9.47;100.00
12969;BME280;6549;53.128;8.182;2023-04-23T02:13:15;100485.56;;;9.41;100.00
12969;BME280;6549;53.128;8.182;2023-04-23T02:16:15;100480.44;;;9.36;100.00
12969;BME280;6549;53.128;8.182;2023-04-23T02:19:16;100487.88;;;9.32;100.00
12969;BME280;6549;53.128;8.182;2023-04-23T02:22:16;100484.34;;;9.32;100.00
12969;BME280;6549;53.128;8.182;2023-04-23T02:25:17;100473.75;;;9.30;100.00
12969;BME280;6549;53.128;8.182;2023-04-23T02:28:17;100482.75;;;9.27;100.00
12969;BME280;6549;53.128;8.182;2023-04-23T02:31:18;100483.13;;;9.26;100.00
12969;BME280;6549;53.128;8.182;2023-04-23T02:34:19;100482.31;;;9.25;100.00
12969;BME280;6549;53.128;8.182;2023-04-23T02:37:19;100484.25;;;9.21;100.00
12969;BME280;6549;53.128;8.182;2023-04-23T02:40:20;100499.16;;;9.20;100.00
12969;BME280;6549;53.128;8.182;2023-04-23T02:43:20;100499.53;;;9.15;100.00
12969;BME280;6549;53.128;8.182;2023-04-23T02:46:21;100503.78;;;9.13;100.00
12969;BME280;6549;53.128;8.182;2023-04-23T02:49:21;100497.91;;;9.07;100.00
12969;BME280;6549;53.128;8.182;2023-04-23T02:52:21;100499.81;;;9.03;100.00
12969;BME280;6549;53.128;8.182;2023-04-23T02:55:22;100496.66;;;8.97;100.00
12969;BME280;6549;53.128;8.182;2023-04-23T02:58:24;100498.16;;;8.91;100.00
12969;BME280;6549;53.128;8.182;2023-04-23T03:01:24;100502.47;;;8.89;100.00
12969;BME280;6549;53.128;8.182;2023-04-23T03:04:25;100494.97;;;8.86;100.00
12969;BME280;6549;53.128;8.182;2023-04-23T03:07:25;100495.78;;;8.86;100.00
12969;BME280;6549;53.128;8.182;2023-04-23T03:10:25;100502.81;;;8.84;100.00
12969;BME280;6549;53.128;8.182;2023-04-23T03:13:26;100504.34;;;8.81;100.00
12969;BME280;6549;53.128;8.182;2023-04-23T03:16:27;100501.22;;;8.79;100.00
12969;BME280;6549;53.128;8.182;2023-04-23T03:19:27;100496.44;;;8.73;100.00
12969;BME280;6549;53.128;8.182;2023-04-23T03:22:28;100502.28;;;8.68;100.00
12969;BME280;6549;53.128;8.182;2023-04-23T03:25:28;100501.88;;;8.66;100.00
12969;BME280;6549;53.128;8.182;2023-04-23T03:28:29;100503.81;;;8.65;100.00
12969;BME280;6549;53.128;8.182;2023-04-23T03:31:30;100508.06;;;8.59;100.00
12969;BME280;6549;53.128;8.182;2023-04-23T03:34:30;100496.28;;;8.55;100.00
12969;BME280;6549;53.128;8.182;2023-04-23T03:37:30;100495.09;;;8.52;100.00
12969;BME280;6549;53.128;8.182;2023-04-23T03:40:31;100495.44;;;8.47;100.00
12969;BME280;6549;53.128;8.182;2023-04-23T03:43:31;100500.50;;;8.45;100.00
12969;BME280;6549;53.128;8.182;2023-04-23T03:46:31;100497.75;;;8.45;100.00
12969;BME280;6549;53.128;8.182;2023-04-23T03:49:32;100486.41;;;8.43;100.00
12969;BME280;6549;53.128;8.182;2023-04-23T03:52:32;100496.22;;;8.44;100.00
12969;BME280;6549;53.128;8.182;2023-04-23T03:55:32;100485.97;;;8.38;100.00
12969;BME280;6549;53.128;8.182;2023-04-23T03:58:33;100486.00;;;8.41;100.00
12969;BME280;6549;53.128;8.182;2023-04-23T04:01:33;100490.69;;;8.41;100.00
12969;BME280;6549;53.128;8.182;2023-04-23T04:04:35;100500.44;;;8.38;100.00
12969;BME280;6549;53.128;8.182;2023-04-23T04:07:35;100493.34;;;8.30;100.00
12969;BME280;6549;53.128;8.182;2023-04-23T04:10:36;100505.75;;;8.24;100.00
12969;BME280;6549;53.128;8.182;2023-04-23T04:13:36;100503.00;;;8.24;100.00
12969;BME280;6549;53.128;8.182;2023-04-23T04:16:36;100498.28;;;8.21;100.00
12969;BME280;6549;53.128;8.182;2023-04-23T04:19:37;100497.03;;;8.15;100.00
12969;BME280;6549;53.128;8.182;2023-04-23T04:22:38;100504.09;;;8.16;100.00
12969;BME280;6549;53.128;8.182;2023-04-23T04:25:38;100501.72;;;8.14;100.00
12969;BME280;6549;53.128;8.182;2023-04-23T04:28:39;100496.69;;;8.17;100.00
12969;BME280;6549;53.128;8.182;2023-04-23T04:31:39;100493.94;;;8.17;100.00
12969;BME280;6549;53.128;8.182;2023-04-23T04:34:39;100500.56;;;8.16;100.00
12969;BME280;6549;53.128;8.182;2023-04-23T04:37:39;100493.50;;;8.14;100.00
12969;BME280;6549;53.128;8.182;2023-04-23T04:40:41;100499.75;;;8.11;100.00
12969;BME280;6549;53.128;8.182;2023-04-23T04:43:41;100497.50;;;8.21;100.00
12969;BME280;6549;53.128;8.182;2023-04-23T04:46:42;100492.81;;;8.21;100.00
12969;BME280;6549;53.128;8.182;2023-04-23T04:49:43;100492.06;;;8.24;100.00
12969;BME280;6549;53.128;8.182;2023-04-23T04:52:43;100494.00;;;8.24;100.00
12969;BME280;6549;53.128;8.182;2023-04-23T04:55:44;100495.22;;;8.26;100.00
12969;BME280;6549;53.128;8.182;2023-04-23T04:58:44;100494.06;;;8.27;100.00
12969;BME280;6549;53.128;8.182;2023-04-23T05:01:45;100497.16;;;8.26;100.00
12969;BME280;6549;53.128;8.182;2023-04-23T05:04:45;100497.16;;;8.26;100.00
12969;BME280;6549;53.128;8.182;2023-04-23T05:07:46;100497.22;;;8.29;100.00
12969;BME280;6549;53.128;8.182;2023-04-23T05:10:46;100496.41;;;8.29;100.00
12969;BME280;6549;53.128;8.182;2023-04-23T05:13:47;100502.38;;;8.34;100.00
12969;BME280;6549;53.128;8.182;2023-04-23T05:16:47;100493.78;;;8.36;100.00
12969;BME280;6549;53.128;8.182;2023-04-23T05:19:47;100491.44;;;8.38;100.00
12969;BME280;6549;53.128;8.182;2023-04-23T05:22:48;100496.94;;;8.41;100.00
12969;BME280;6549;53.128;8.182;2023-04-23T05:25:48;100494.63;;;8.43;100.00
12969;BME280;6549;53.128;8.182;2023-04-23T05:28:50;100492.34;;;8.49;100.00
12969;BME280;6549;53.128;8.182;2023-04-23T05:31:51;100494.75;;;8.57;100.00
12969;BME280;6549;53.128;8.182;2023-04-23T05:34:51;100495.59;;;8.62;100.00
12969;BME280;6549;53.128;8.182;2023-04-23T05:37:52;100498.38;;;8.69;100.00
12969;BME280;6549;53.128;8.182;2023-04-23T05:40:52;100494.13;;;8.75;100.00
12969;BME280;6549;53.128;8.182;2023-04-23T05:43:52;100494.16;;;8.78;100.00
12969;BME280;6549;53.128;8.182;2023-04-23T05:46:52;100496.91;;;8.82;100.00
12969;BME280;6549;53.128;8.182;2023-04-23T05:49:53;100494.63;;;8.87;100.00
12969;BME280;6549;53.128;8.182;2023-04-23T05:52:53;100500.53;;;8.93;100.00
12969;BME280;6549;53.128;8.182;2023-04-23T05:55:53;100489.69;;;9.07;100.00
12969;BME280;6549;53.128;8.182;2023-04-23T05:58:54;100489.84;;;9.35;100.00
12969;BME280;6549;53.128;8.182;2023-04-23T06:01:54;100489.97;;;9.60;100.00
12969;BME280;6549;53.128;8.182;2023-04-23T06:04:54;100497.88;;;9.76;100.00
12969;BME280;6549;53.128;8.182;2023-04-23T06:07:55;100495.22;;;9.97;100.00
12969;BME280;6549;53.128;8.182;2023-04-23T06:10:55;100495.66;;;10.13;100.00
12969;BME280;6549;53.128;8.182;2023-04-23T06:13:55;100490.88;;;9.96;100.00
12969;BME280;6549;53.128;8.182;2023-04-23T06:16:56;100496.38;;;9.92;100.00
12969;BME280;6549;53.128;8.182;2023-04-23T06:19:56;100483.06;;;9.95;100.00
12969;BME280;6549;53.128;8.182;2023-04-23T06:22:56;100488.63;;;10.19;100.00
12969;BME280;6549;53.128;8.182;2023-04-23T06:25:57;100485.94;;;10.48;100.00
12969;BME280;6549;53.128;8.182;2023-04-23T06:28:57;100493.00;;;10.91;100.00
12969;BME280;6549;53.128;8.182;2023-04-23T06:32:00;100477.25;;;11.27;100.00
12969;BME280;6549;53.128;8.182;2023-04-23T06:35:01;100479.88;;;11.66;100.00
12969;BME280;6549;53.128;8.182;2023-04-23T06:38:03;100485.28;;;11.98;100.00
12969;BME280;6549;53.128;8.182;2023-04-23T06:41:03;100484.69;;;12.28;100.00
12969;BME280;6549;53.128;8.182;2023-04-23T06:44:04;100477.84;;;12.53;100.00
12969;BME280;6549;53.128;8.182;2023-04-23T06:47:05;100479.25;;;12.72;100.00
12969;BME280;6549;53.128;8.182;2023-04-23T06:50:06;100473.56;;;12.93;100.00
12969;BME280;6549;53.128;8.182;2023-04-23T06:53:07;100475.28;;;13.21;100.00
12969;BME280;6549;53.128;8.182;2023-04-23T06:56:07;100475.09;;;13.39;100.00
12969;BME280;6549;53.128;8.182;2023-04-23T06:59:08;100487.94;;;13.19;100.00
12969;BME280;6549;53.128;8.182;2023-04-23T07:02:08;100480.31;;;13.30;100.00
12969;BME280;6549;53.128;8.182;2023-04-23T07:05:08;100473.69;;;13.24;100.00
12969;BME280;6549;53.128;8.182;2023-04-23T07:08:09;100466.13;;;13.31;100.00
12969;BME280;6549;53.128;8.182;2023-04-23T07:11:10;100466.16;;;13.28;100.00
12969;BME280;6549;53.128;8.182;2023-04-23T07:14:10;100467.75;;;13.25;100.00
12969;BME280;6549;53.128;8.182;2023-04-23T07:17:10;100472.97;;;13.54;100.00
12969;BME280;6549;53.128;8.182;2023-04-23T07:20:11;100471.56;;;13.72;100.00
12969;BME280;6549;53.128;8.182;2023-04-23T07:23:11;100479.25;;;13.58;100.00
12969;BME280;6549;53.128;8.182;2023-04-23T07:26:11;100468.81;;;13.38;100.00
12969;BME280;6549;53.128;8.182;2023-04-23T07:29:12;100473.38;;;13.18;100.00
12969;BME280;6549;53.128;8.182;2023-04-23T07:32:13;100468.00;;;13.00;100.00
12969;BME280;6549;53.128;8.182;2023-04-23T07:35:13;100462.97;;;12.88;100.00
12969;BME280;6549;53.128;8.182;2023-04-23T07:38:14;100457.53;;;12.81;100.00
12969;BME280;6549;53.128;8.182;2023-04-23T07:41:14;100446.63;;;12.67;100.00
12969;BME280;6549;53.128;8.182;2023-04-23T07:44:14;100452.31;;;12.46;100.00
12969;BME280;6549;53.128;8.182;2023-04-23T07:47:15;100434.50;;;12.54;100.00
12969;BME280;6549;53.128;8.182;2023-04-23T07:50:15;100434.00;;;13.14;100.00
12969;BME280;6549;53.128;8.182;2023-04-23T07:53:15;100438.97;;;13.60;100.00
12969;BME280;6549;53.128;8.182;2023-04-23T07:56:16;100450.16;;;14.10;100.00
12969;BME280;6549;53.128;8.182;2023-04-23T07:59:16;100439.72;;;14.48;100.00
12969;BME280;6549;53.128;8.182;2023-04-23T08:02:16;100425.06;;;14.74;100.00
12969;BME280;6549;53.128;8.182;2023-04-23T08:05:17;100422.28;;;14.74;100.00
12969;BME280;6549;53.128;8.182;2023-04-23T08:08:17;100416.19;;;15.06;100.00
12969;BME280;6549;53.128;8.182;2023-04-23T08:11:18;100420.97;;;15.65;100.00
12969;BME280;6549;53.128;8.182;2023-04-23T08:14:18;100413.16;;;15.60;100.00
12969;BME280;6549;53.128;8.182;2023-04-23T08:17:18;100405.84;;;15.69;100.00
12969;BME280;6549;53.128;8.182;2023-04-23T08:20:19;100405.09;;;15.85;100.00
12969;BME280;6549;53.128;8.182;2023-04-23T08:23:19;100401.09;;;16.06;100.00
12969;BME280;6549;53.128;8.182;2023-04-23T08:26:19;100396.41;;;16.51;100.00
12969;BME280;6549;53.128;8.182;2023-04-23T08:29:20;100410.72;;;16.34;100.00
12969;BME280;6549;53.128;8.182;2023-04-23T08:32:20;100403.88;;;16.54;100.00
12969;BME280;6549;53.128;8.182;2023-04-23T08:35:21;100394.44;;;16.68;100.00
12969;BME280;6549;53.128;8.182;2023-04-23T08:38:21;100391.72;;;16.81;100.00
12969;BME280;6549;53.128;8.182;2023-04-23T08:41:22;100396.97;;;16.91;100.00
12969;BME280;6549;53.128;8.182;2023-04-23T08:44:27;100393.31;;;17.11;100.00
12969;BME280;6549;53.128;8.182;2023-04-23T08:47:29;100382.31;;;17.07;100.00
12969;BME280;6549;53.128;8.182;2023-04-23T08:50:29;100377.16;;;17.34;99.41
12969;BME280;6549;53.128;8.182;2023-04-23T08:53:30;100377.25;;;17.72;100.00
12969;BME280;6549;53.128;8.182;2023-04-23T08:56:31;100376.03;;;17.61;91.93
12969;BME280;6549;53.128;8.182;2023-04-23T08:59:32;100381.72;;;17.70;87.50
12969;BME280;6549;53.128;8.182;2023-04-23T09:02:33;100382.94;;;17.81;84.44
12969;BME280;6549;53.128;8.182;2023-04-23T09:05:34;100381.91;;;17.75;82.62
12969;BME280;6549;53.128;8.182;2023-04-23T09:08:34;100378.16;;;17.82;85.04
12969;BME280;6549;53.128;8.182;2023-04-23T09:11:36;100378.16;;;18.07;86.52
12969;BME280;6549;53.128;8.182;2023-04-23T09:14:36;100368.09;;;18.48;85.35
12969;BME280;6549;53.128;8.182;2023-04-23T09:17:39;100370.47;;;18.36;73.43
12969;BME280;6549;53.128;8.182;2023-04-23T09:20:40;100367.88;;;18.42;83.78
12969;BME280;6549;53.128;8.182;2023-04-23T09:23:42;100364.41;;;18.51;76.81
12969;BME280;6549;53.128;8.182;2023-04-23T09:26:46;100361.56;;;18.16;77.63
12969;BME280;6549;53.128;8.182;2023-04-23T09:29:48;100348.81;;;17.81;74.84
12969;BME280;6549;53.128;8.182;2023-04-23T09:32:52;100356.13;;;18.13;78.56
12969;BME280;6549;53.128;8.182;2023-04-23T09:35:53;100359.44;;;18.33;76.13
12969;BME280;6549;53.128;8.182;2023-04-23T09:38:57;100360.53;;;18.48;76.08
12969;BME280;6549;53.128;8.182;2023-04-23T09:42:02;100353.97;;;18.89;74.59
12969;BME280;6549;53.128;8.182;2023-04-23T09:45:10;100357.22;;;19.09;73.28
12969;BME280;6549;53.128;8.182;2023-04-23T09:48:10;100359.47;;;19.02;75.04
12969;BME280;6549;53.128;8.182;2023-04-23T09:51:13;100351.56;;;19.00;76.87
12969;BME280;6549;53.128;8.182;2023-04-23T09:54:19;100349.25;;;19.20;75.89
12969;BME280;6549;53.128;8.182;2023-04-23T09:57:23;100362.72;;;19.22;78.48
12969;BME280;6549;53.128;8.182;2023-04-23T10:00:23;100349.84;;;18.94;76.50
12969;BME280;6549;53.128;8.182;2023-04-23T10:03:28;100353.91;;;19.02;78.58
12969;BME280;6549;53.128;8.182;2023-04-23T10:06:29;100351.63;;;19.09;79.89
12969;BME280;6549;53.128;8.182;2023-04-23T10:09:30;100351.06;;;19.14;77.02
12969;BME280;6549;53.128;8.182;2023-04-23T10:12:31;100339.25;;;19.32;78.42
12969;BME280;6549;53.128;8.182;2023-04-23T10:15:32;100348.88;;;19.62;77.08
12969;BME280;6549;53.128;8.182;2023-04-23T10:18:33;100358.19;;;19.59;76.30
12969;BME280;6549;53.128;8.182;2023-04-23T10:21:37;100352.66;;;19.68;78.92
12969;BME280;6549;53.128;8.182;2023-04-23T10:24:39;100338.78;;;19.86;79.34
12969;BME280;6549;53.128;8.182;2023-04-23T10:27:42;100338.31;;;19.88;75.85
12969;BME280;6549;53.128;8.182;2023-04-23T10:30:43;100335.84;;;19.90;78.43
12969;BME280;6549;53.128;8.182;2023-04-23T10:33:44;100342.22;;;19.90;78.25
12969;BME280;6549;53.128;8.182;2023-04-23T10:36:47;100347.16;;;19.86;78.67
12969;BME280;6549;53.128;8.182;2023-04-23T10:39:49;100334.03;;;20.05;78.61
12969;BME280;6549;53.128;8.182;2023-04-23T10:42:52;100342.84;;;20.43;77.52
12969;BME280;6549;53.128;8.182;2023-04-23T10:45:54;100334.34;;;20.56;78.42
12969;BME280;6549;53.128;8.182;2023-04-23T10:49:05;100331.38;;;20.87;80.37
12969;BME280;6549;53.128;8.182;2023-04-23T10:52:14;100319.00;;;20.79;77.57
12969;BME280;6549;53.128;8.182;2023-04-23T10:55:16;100324.41;;;21.19;80.46
12969;BME280;6549;53.128;8.182;2023-04-23T10:58:18;100315.09;;;20.94;76.28
12969;BME280;6549;53.128;8.182;2023-04-23T11:01:23;100313.50;;;21.02;76.88
12969;BME280;6549;53.128;8.182;2023-04-23T11:04:28;100314.78;;;21.20;75.12
12969;BME280;6549;53.128;8.182;2023-04-23T11:07:30;100311.06;;;20.86;74.34
12969;BME280;6549;53.128;8.182;2023-04-23T11:10:31;100298.66;;;20.96;75.60
12969;BME280;6549;53.128;8.182;2023-04-23T11:13:33;100310.38;;;21.46;71.52
12969;BME280;6549;53.128;8.182;2023-04-23T11:16:33;100309.53;;;21.64;72.30
12969;BME280;6549;53.128;8.182;2023-04-23T11:19:36;100302.69;;;21.56;70.71
12969;BME280;6549;53.128;8.182;2023-04-23T11:22:50;100301.59;;;21.62;72.08
12969;BME280;6549;53.128;8.182;2023-04-23T11:25:50;100299.44;;;20.70;73.73
12969;BME280;6549;53.128;8.182;2023-04-23T11:28:52;100303.94;;;20.49;76.03
12969;BME280;6549;53.128;8.182;2023-04-23T11:31:54;100305.81;;;20.61;78.74
12969;BME280;6549;53.128;8.182;2023-04-23T11:34:55;100307.81;;;20.60;74.22
12969;BME280;6549;53.128;8.182;2023-04-23T11:37:56;100300.56;;;20.14;75.79
12969;BME280;6549;53.128;8.182;2023-04-23T11:40:57;100304.50;;;19.77;78.89
12969;BME280;6549;53.128;8.182;2023-04-23T11:43:57;100302.97;;;19.45;82.23
12969;BME280;6549;53.128;8.182;2023-04-23T11:46:59;100303.63;;;19.49;83.86
12969;BME280;6549;53.128;8.182;2023-04-23T11:50:01;100297.16;;;20.10;82.33
12969;BME280;6549;53.128;8.182;2023-04-23T11:53:05;100306.88;;;20.54;76.68
12969;BME280;6549;53.128;8.182;2023-04-23T11:56:09;100298.94;;;20.89;77.11
12969;BME280;6549;53.128;8.182;2023-04-23T11:59:09;100293.31;;;21.35;72.03
12969;BME280;6549;53.128;8.182;2023-04-23T12:02:10;100289.91;;;21.31;70.85
12969;BME280;6549;53.128;8.182;2023-04-23T12:05:10;100289.47;;;21.23;65.25
12969;BME280;6549;53.128;8.182;2023-04-23T12:08:14;100280.56;;;21.34;66.75
12969;BME280;6549;53.128;8.182;2023-04-23T12:11:15;100279.53;;;21.22;64.81
12969;BME280;6549;53.128;8.182;2023-04-23T12:14:17;100284.06;;;21.01;65.16
12969;BME280;6549;53.128;8.182;2023-04-23T12:17:17;100287.50;;;20.60;66.26
12969;BME280;6549;53.128;8.182;2023-04-23T12:20:19;100283.91;;;20.41;68.40
12969;BME280;6549;53.128;8.182;2023-04-23T12:23:26;100280.16;;;20.17;69.94
12969;BME280;6549;53.128;8.182;2023-04-23T12:26:29;100284.84;;;20.38;68.99
12969;BME280;6549;53.128;8.182;2023-04-23T12:29:30;100284.69;;;20.96;67.63
12969;BME280;6549;53.128;8.182;2023-04-23T12:32:32;100287.03;;;20.89;65.59
12969;BME280;6549;53.128;8.182;2023-04-23T12:35:41;100293.25;;;19.89;66.53
12969;BME280;6549;53.128;8.182;2023-04-23T12:38:41;100278.34;;;19.43;62.38
12969;BME280;6549;53.128;8.182;2023-04-23T12:41:42;100277.31;;;19.28;64.22
12969;BME280;6549;53.128;8.182;2023-04-23T12:44:42;100268.84;;;19.32;65.70
12969;BME280;6549;53.128;8.182;2023-04-23T12:47:42;100267.34;;;19.80;66.67
12969;BME280;6549;53.128;8.182;2023-04-23T12:50:47;100258.00;;;20.32;67.16
12969;BME280;6549;53.128;8.182;2023-04-23T12:53:48;100253.53;;;20.71;65.24
12969;BME280;6549;53.128;8.182;2023-04-23T12:56:48;100243.03;;;21.26;64.68
12969;BME280;6549;53.128;8.182;2023-04-23T12:59:48;100242.72;;;21.33;65.08
12969;BME280;6549;53.128;8.182;2023-04-23T13:02:49;100244.78;;;21.56;64.36
12969;BME280;6549;53.128;8.182;2023-04-23T13:05:49;100230.59;;;21.36;62.21
12969;BME280;6549;53.128;8.182;2023-04-23T13:08:50;100236.28;;;20.90;59.04
12969;BME280;6549;53.128;8.182;2023-04-23T13:11:50;100233.66;;;20.78;59.00
12969;BME280;6549;53.128;8.182;2023-04-23T13:14:50;100228.53;;;20.67;57.77
12969;BME280;6549;53.128;8.182;2023-04-23T13:17:51;100219.50;;;20.90;58.15
12969;BME280;6549;53.128;8.182;2023-04-23T13:20:51;100219.47;;;21.18;57.84
12969;BME280;6549;53.128;8.182;2023-04-23T13:23:51;100218.16;;;21.37;55.98
12969;BME280;6549;53.128;8.182;2023-04-23T13:26:52;100209.50;;;21.59;56.12
12969;BME280;6549;53.128;8.182;2023-04-23T13:29:52;100206.56;;;21.86;55.30
12969;BME280;6549;53.128;8.182;2023-04-23T13:32:53;100203.84;;;22.01;52.28
12969;BME280;6549;53.128;8.182;2023-04-23T13:35:54;100194.09;;;21.87;50.01
12969;BME280;6549;53.128;8.182;2023-04-23T13:38:55;100193.59;;;21.98;51.97
12969;BME280;6549;53.128;8.182;2023-04-23T13:41:56;100194.06;;;21.72;52.43
12969;BME280;6549;53.128;8.182;2023-04-23T13:44:56;100179.66;;;21.32;53.12
12969;BME280;6549;53.128;8.182;2023-04-23T13:47:56;100181.91;;;21.19;52.26
12969;BME280;6549;53.128;8.182;2023-04-23T13:50:57;100167.03;;;21.03;52.05
12969;BME280;6549;53.128;8.182;2023-04-23T13:53:58;100158.84;;;20.91;52.17
12969;BME280;6549;53.128;8.182;2023-04-23T13:56:58;100156.09;;;20.82;54.42
12969;BME280;6549;53.128;8.182;2023-04-23T14:00:00;100153.16;;;20.67;54.95
12969;BME280;6549;53.128;8.182;2023-04-23T14:03:00;100149.16;;;20.59;55.00
12969;BME280;6549;53.128;8.182;2023-04-23T14:06:00;100141.09;;;20.61;56.76
12969;BME280;6549;53.128;8.182;2023-04-23T14:09:02;100140.75;;;20.77;55.00
12969;BME280;6549;53.128;8.182;2023-04-23T14:12:02;100141.72;;;20.65;56.73
12969;BME280;6549;53.128;8.182;2023-04-23T14:15:05;100140.00;;;20.58;56.84
12969;BME280;6549;53.128;8.182;2023-04-23T14:18:05;100133.38;;;20.38;56.16
12969;BME280;6549;53.128;8.182;2023-04-23T14:21:06;100133.81;;;20.27;58.08
12969;BME280;6549;53.128;8.182;2023-04-23T14:24:08;100131.03;;;20.27;57.71
12969;BME280;6549;53.128;8.182;2023-04-23T14:27:10;100129.50;;;20.26;57.68
12969;BME280;6549;53.128;8.182;2023-04-23T14:30:16;100128.13;;;20.40;57.19
12969;BME280;6549;53.128;8.182;2023-04-23T14:33:17;100125.63;;;20.33;57.18
12969;BME280;6549;53.128;8.182;2023-04-23T14:36:18;100132.75;;;20.43;58.48
12969;BME280;6549;53.128;8.182;2023-04-23T14:39:21;100126.56;;;20.48;56.17
12969;BME280;6549;53.128;8.182;2023-04-23T14:42:21;100120.06;;;20.33;54.05
12969;BME280;6549;53.128;8.182;2023-04-23T14:45:22;100116.34;;;20.17;53.73
12969;BME280;6549;53.128;8.182;2023-04-23T14:48:22;100107.34;;;20.13;53.34
12969;BME280;6549;53.128;8.182;2023-04-23T14:51:22;100108.75;;;19.82;53.84
12969;BME280;6549;53.128;8.182;2023-04-23T14:54:23;100110.91;;;19.78;53.83
12969;BME280;6549;53.128;8.182;2023-04-23T14:57:23;100102.09;;;19.88;52.77
12969;BME280;6549;53.128;8.182;2023-04-23T15:00:24;100094.31;;;20.10;53.66
12969;BME280;6549;53.128;8.182;2023-04-23T15:03:24;100094.03;;;20.08;52.41
12969;BME280;6549;53.128;8.182;2023-04-23T15:06:26;100086.91;;;19.89;52.90
12969;BME280;6549;53.128;8.182;2023-04-23T15:09:26;100083.78;;;20.05;51.00
12969;BME280;6549;53.128;8.182;2023-04-23T15:15:48;100080.94;;;20.51;51.87
12969;BME280;6549;53.128;8.182;2023-04-23T15:18:49;100069.09;;;20.74;52.23
12969;BME280;6549;53.128;8.182;2023-04-23T15:21:49;100080.66;;;20.91;51.10
12969;BME280;6549;53.128;8.182;2023-04-23T15:24:50;100079.03;;;20.75;51.30
12969;BME280;6549;53.128;8.182;2023-04-23T15:27:50;100076.44;;;20.53;52.23
12969;BME280;6549;53.128;8.182;2023-04-23T15:30:57;100067.34;;;20.26;52.78
12969;BME280;6549;53.128;8.182;2023-04-23T15:33:57;100066.75;;;20.12;53.98
12969;BME280;6549;53.128;8.182;2023-04-23T15:36:57;100066.44;;;19.92;53.27
12969;BME280;6549;53.128;8.182;2023-04-23T15:39:58;100059.34;;;19.91;53.86
12969;BME280;6549;53.128;8.182;2023-04-23T15:42:58;100066.44;;;19.92;54.58
12969;BME280;6549;53.128;8.182;2023-04-23T15:45:58;100060.25;;;19.88;53.11
12969;BME280;6549;53.128;8.182;2023-04-23T15:49:00;100055.47;;;19.70;53.24
12969;BME280;6549;53.128;8.182;2023-04-23T15:52:02;100052.84;;;19.67;53.09
12969;BME280;6549;53.128;8.182;2023-04-23T15:55:05;100048.97;;;19.55;52.92
12969;BME280;6549;53.128;8.182;2023-04-23T15:58:05;100045.41;;;19.55;52.42